Jonesville, Vermont
Current Conditions -  °F | °C
As of 10:54 AM on Sunday 25 Jan 2015 (Local Time) from KBTV Reporting Station
Scattered Clouds Scattered Clouds  
Wind Chill:   Ceiling: Unl
Heat Index: 15°   Visibility: 10mi
Dew Point:   Wind: 15mph
Humidity: 54%   Direction: 300°WNW
Pressure: 29.77"   Gusts: 22mph
Location:  44.38°N, 72.94°W
Report Text: KBTV 251554Z 30013G19KT 10SM SCT030 M09/M17 A2977 RMK AO2 SLP085 CLDS OBSCG MTNS E-SE T10941172
Loading
Personal Weather Stations






























Interactive Weather Map New forecast layout! Learn more

10-Day Weather Forecast

Advertisements
Track Severe Weather on mobile